Time;durP1;ratioP1;P1;durP2;ratioP2;P2;SDS_P1;SDS_P2;PMS_P1;PMS_P2;Temp;Humidity;BMP_temperature;BMP_pressure;BME280_temperature;BME280_humidity;BME280_pressure;Samples;Min_cycle;Max_cycle;Signal;HPM_P1;HPM_P2
2022/11/25 00:01:26;;;;;;;7.93;1.27;;;;;;;17.51;46.89;100762.31;4956355;28;20512;-65
2022/11/25 00:03:53;;;;;;;3.85;0.88;;;;;;;17.52;46.30;100768.56;4972615;28;20027;-65
2022/11/25 00:06:22;;;;;;;5.68;1.17;;;;;;;17.54;46.30;100759.28;4973345;28;20492;-64
2022/11/25 00:08:50;;;;;;;7.03;1.67;;;;;;;17.56;46.16;100751.00;4992582;28;20026;-65
2022/11/25 00:11:16;;;;;;;2.90;1.05;;;;;;;17.56;45.77;100737.44;4976054;28;20576;-64
2022/11/25 00:13:43;;;;;;;8.60;1.70;;;;;;;17.57;46.00;100737.25;4992252;28;20123;-65
2022/11/25 00:16:11;;;;;;;7.05;1.25;;;;;;;17.63;45.76;100733.84;4976019;28;20405;-64
2022/11/25 00:18:36;;;;;;;5.88;1.48;;;;;;;17.64;46.05;100735.53;4975785;28;20027;-65
2022/11/25 00:21:07;;;;;;;11.95;1.63;;;;;;;17.66;46.98;100738.91;4992646;28;20477;-65
2022/11/25 00:23:32;;;;;;;9.02;1.38;;;;;;;17.67;45.79;100735.16;4959839;28;20034;-64
2022/11/25 00:26:07;;;;;;;10.02;1.40;;;;;;;17.67;46.32;100721.63;4975459;28;20471;-65
2022/11/25 00:28:33;;;;;;;6.03;1.27;;;;;;;17.70;45.64;100721.25;4991906;28;20039;-65
2022/11/25 00:31:06;;;;;;;11.10;1.48;;;;;;;17.70;46.24;100718.56;4977048;28;20042;-65
2022/11/25 00:33:32;;;;;;;6.50;1.45;;;;;;;17.71;46.04;100722.97;4975556;28;20397;-65
2022/11/25 00:36:03;;;;;;;7.47;1.27;;;;;;;17.75;46.86;100716.19;4977171;28;20023;-64
2022/11/25 00:38:28;;;;;;;7.40;1.38;;;;;;;17.77;46.54;100719.56;4975731;28;20037;-65
2022/11/25 00:46:24;;;;;;;2.58;1.00;;;;;;;17.78;46.36;100704.97;4976536;28;20523;-65
2022/11/25 00:48:50;;;;;;;6.57;1.30;;;;;;;17.78;45.95;100704.97;4991432;28;20034;-65
2022/11/25 00:51:15;;;;;;;5.72;0.93;;;;;;;17.83;46.22;100708.00;4975444;28;20026;-64
2022/11/25 00:53:40;;;;;;;7.93;1.38;;;;;;;17.83;46.10;100699.88;4976036;28;20537;-65
2022/11/25 00:56:12;;;;;;;7.03;1.52;;;;;;;17.86;45.74;100693.25;4991568;28;20049;-65
2022/11/25 00:58:38;;;;;;;5.57;0.82;;;;;;;17.87;46.53;100703.03;4976953;28;20039;-64
2022/11/25 01:01:03;;;;;;;4.88;1.38;;;;;;;17.84;46.76;100698.81;4975483;28;20535;-65
2022/11/25 01:03:29;;;;;;;6.07;0.95;;;;;;;17.86;45.99;100702.22;4975050;28;20027;-65
2022/11/25 01:05:54;;;;;;;9.93;1.30;;;;;;;17.86;46.68;100702.22;4976769;28;20026;-65
2022/11/25 01:08:20;;;;;;;5.10;0.90;;;;;;;17.87;46.46;100698.47;4976132;28;20058;-64
2022/11/25 01:10:45;;;;;;;1.65;0.88;;;;;;;17.87;46.28;100698.47;4975105;28;20043;-65
2022/11/25 01:13:10;;;;;;;10.65;1.67;;;;;;;17.91;46.36;100712.53;4991522;28;20031;-65
2022/11/25 01:15:36;;;;;;;19.65;1.60;;;;;;;17.91;46.51;100696.25;4976111;28;20097;-65
2022/11/25 01:18:01;;;;;;;4.90;1.05;;;;;;;17.91;46.41;100688.97;4974748;28;20484;-65
2022/11/25 01:20:27;;;;;;;9.95;1.50;;;;;;;17.92;46.51;100706.91;4976098;28;20031;-65
2022/11/25 01:22:52;;;;;;;5.35;1.10;;;;;;;17.96;45.95;100707.41;4974770;28;20035;-64
2022/11/25 01:25:17;;;;;;;9.43;1.02;;;;;;;17.97;45.77;100711.81;4958746;28;20097;-65
2022/11/25 01:27:43;;;;;;;8.20;2.05;;;;;;;17.98;46.29;100716.19;4974585;28;20034;-65
2022/11/25 01:30:08;;;;;;;7.57;1.20;;;;;;;17.99;46.83;100716.00;4975230;28;20026;-65
2022/11/25 01:32:34;;;;;;;6.22;0.95;;;;;;;17.99;46.28;100724.16;4990930;28;20034;-64
2022/11/25 01:34:59;;;;;;;7.57;1.88;;;;;;;18.02;46.08;100723.78;4974538;28;20042;-65
2022/11/25 01:37:25;;;;;;;10.77;1.23;;;;;;;18.02;46.29;100715.66;4990779;28;20053;-64
2022/11/25 01:39:50;;;;;;;11.90;1.20;;;;;;;18.01;45.52;100727.50;4974503;28;20023;-65
2022/11/25 01:42:16;;;;;;;9.50;1.52;;;;;;;18.02;45.60;100731.06;4990757;28;20054;-64
2022/11/25 01:44:42;;;;;;;5.57;1.08;;;;;;;18.03;46.03;100732.78;4958679;28;20018;-65
2022/11/25 01:47:14;;;;;;;8.93;1.48;;;;;;;18.04;45.77;100748.84;4974114;28;20039;-64
2022/11/25 01:49:50;;;;;;;8.68;1.33;;;;;;;18.04;45.73;100748.84;4990576;28;20182;-65
2022/11/25 01:52:28;;;;;;;5.07;1.38;;;;;;;18.09;46.36;100753.72;4974214;28;20035;-65
2022/11/25 01:54:57;;;;;;;5.22;1.20;;;;;;;18.11;46.34;100748.13;4990180;28;20043;-65
2022/11/25 01:57:28;;;;;;;6.97;1.45;;;;;;;18.12;45.97;100756.06;4974100;28;20041;-65
2022/11/25 01:59:56;;;;;;;4.00;1.25;;;;;;;18.13;45.97;100762.34;4958377;28;20130;-65
2022/11/25 02:02:22;;;;;;;5.35;0.95;;;;;;;18.13;46.26;100774.03;4990398;28;20405;-65
2022/11/25 02:04:48;;;;;;;11.93;1.50;;;;;;;18.14;46.18;100774.88;4973926;28;20031;-64
2022/11/25 02:07:25;;;;;;;8.13;1.33;;;;;;;18.16;46.08;100772.84;4973988;28;20027;-65
2022/11/25 02:09:51;;;;;;;6.95;1.33;;;;;;;18.17;45.46;100766.41;4990060;28;20122;-65
2022/11/25 02:12:17;;;;;;;5.72;1.10;;;;;;;18.21;45.52;100771.28;4975004;28;20452;-65
2022/11/25 02:14:44;;;;;;;5.00;1.10;;;;;;;18.22;46.08;100766.69;4990450;28;20089;-65
2022/11/25 02:17:09;;;;;;;3.63;0.77;;;;;;;18.25;45.90;100774.47;4973779;28;20037;-65
2022/11/25 02:19:59;;;;;;;5.13;1.15;;;;;;;18.25;45.32;100769.06;4973655;28;20035;-65
2022/11/25 02:22:49;;;;;;;7.35;0.85;;;;;;;18.26;45.89;100777.00;4973662;28;20031;-65
2022/11/25 02:25:15;;;;;;;11.23;1.30;;;;;;;18.27;45.61;100775.13;4989751;28;20043;-65
2022/11/25 02:27:42;;;;;;;2.13;0.70;;;;;;;18.26;46.13;100778.84;4973548;28;20034;-65
2022/11/25 02:30:08;;;;;;;4.15;1.08;;;;;;;18.27;45.80;100777.84;4989477;28;20500;-65
2022/11/25 02:32:33;;;;;;;6.72;1.33;;;;;;;18.26;45.75;100779.69;4973272;28;20035;-65
2022/11/25 02:34:59;;;;;;;7.38;1.23;;;;;;;18.24;45.88;100775.50;4973344;28;20042;-65
2022/11/25 02:37:24;;;;;;;3.75;1.42;;;;;;;18.21;45.20;100792.13;4974703;28;20535;-64
2022/11/25 02:39:50;;;;;;;5.00;1.92;;;;;;;18.13;45.21;100778.59;4974692;28;20523;-65
2022/11/25 02:42:17;;;;;;;6.45;1.67;;;;;;;18.10;45.53;100787.94;4989531;28;20030;-65
2022/11/25 02:44:43;;;;;;;4.50;1.15;;;;;;;18.10;45.69;100789.81;4990019;28;20078;-65
2022/11/25 02:47:08;;;;;;;11.55;1.50;;;;;;;18.14;45.44;100802.00;4989385;28;20031;-65
2022/11/25 02:49:33;;;;;;;7.85;2.22;;;;;;;18.16;44.96;100805.38;4956943;28;20119;-65
2022/11/25 02:51:59;;;;;;;6.50;1.20;;;;;;;18.14;46.03;100799.28;4957171;28;20039;-66
2022/11/25 02:54:24;;;;;;;8.52;1.48;;;;;;;18.10;45.98;100806.94;4973104;28;20029;-66
2022/11/25 02:56:49;;;;;;;8.55;1.35;;;;;;;18.08;45.66;100814.41;4973990;28;20510;-66
2022/11/25 02:59:15;;;;;;;7.28;1.42;;;;;;;18.03;46.21;100808.69;4989393;28;20165;-65
2022/11/25 03:01:40;;;;;;;4.03;1.02;;;;;;;17.95;46.29;100814.97;4974205;28;20034;-65
2022/11/25 03:04:06;;;;;;;4.30;1.05;;;;;;;17.94;45.36;100821.44;4974294;28;20504;-65
2022/11/25 03:06:32;;;;;;;4.88;1.20;;;;;;;17.90;46.35;100817.38;4989306;28;20035;-65
2022/11/25 03:08:57;;;;;;;4.78;0.85;;;;;;;17.83;46.41;100816.41;4975084;28;20023;-65
2022/11/25 03:12:17;;;;;;;8.48;0.98;;;;;;;17.75;46.09;100818.28;4956773;28;20112;-66
2022/11/25 03:14:08;;;;;;;6.07;0.90;;;;;;;17.62;46.97;100821.53;4972999;28;20034;-65
2022/11/25 03:16:34;;;;;;;5.95;1.10;;;;;;;17.62;47.36;100845.94;4973089;28;20077;-65
2022/11/25 03:18:59;;;;;;;6.90;1.10;;;;;;;17.59;46.92;100856.28;4973123;28;20397;-66
2022/11/25 03:21:24;;;;;;;11.15;0.98;;;;;;;17.54;46.71;100848.66;4989213;28;20050;-66
2022/11/25 03:23:50;;;;;;;7.10;1.10;;;;;;;17.51;47.29;100843.56;4973331;28;20022;-65
2022/11/25 03:26:15;;;;;;;4.30;0.88;;;;;;;17.51;46.90;100857.09;4989275;28;20033;-66
2022/11/25 03:28:40;;;;;;;5.97;1.52;;;;;;;17.52;47.38;100860.66;4973371;28;20083;-65
2022/11/25 03:31:09;;;;;;;2.63;0.60;;;;;;;17.53;47.38;100857.78;4989027;28;20038;-66
2022/11/25 03:33:35;;;;;;;2.03;0.70;;;;;;;17.53;46.66;100852.38;4973266;28;20113;-65
2022/11/25 03:36:00;;;;;;;2.15;0.52;;;;;;;17.51;47.45;100843.56;4973885;28;20042;-66
2022/11/25 03:38:25;;;;;;;3.58;0.77;;;;;;;17.52;46.74;100845.25;4972772;28;20031;-66
2022/11/25 03:40:51;;;;;;;3.50;0.80;;;;;;;17.53;46.46;100841.53;4988997;28;20027;-65
2022/11/25 03:43:16;;;;;;;6.55;0.90;;;;;;;17.53;46.76;100836.13;4976645;28;20066;-65
2022/11/25 03:45:42;;;;;;;6.57;1.17;;;;;;;17.52;47.38;100845.25;4976691;28;20046;-65
2022/11/25 03:48:07;;;;;;;5.55;1.00;;;;;;;17.48;46.75;100814.09;4977308;28;20393;-66
2022/11/25 03:50:32;;;;;;;6.43;0.88;;;;;;;17.41;47.36;100827.53;4977123;28;20035;-66
2022/11/25 03:52:58;;;;;;;4.80;0.98;;;;;;;17.33;46.93;100823.97;4992952;28;20042;-66
2022/11/25 03:55:23;;;;;;;5.07;0.70;;;;;;;17.29;47.54;100828.03;4976365;28;20047;-65
2022/11/25 03:57:49;;;;;;;2.22;0.63;;;;;;;17.24;48.36;100833.97;4977570;28;20127;-66
2022/11/25 04:00:14;;;;;;;4.95;1.05;;;;;;;17.22;48.19;100833.31;4977458;28;20401;-65
2022/11/25 04:02:40;;;;;;;5.97;1.30;;;;;;;17.21;47.67;100830.78;4978190;28;20031;-66
2022/11/25 04:05:05;;;;;;;4.97;0.80;;;;;;;17.18;47.85;100836.53;4960101;28;20043;-65
2022/11/25 04:07:31;;;;;;;3.95;1.00;;;;;;;17.13;47.89;100822.66;4975871;28;20042;-66
2022/11/25 04:09:56;;;;;;;5.57;0.90;;;;;;;17.11;47.42;100822.00;4976551;28;20548;-65
2022/11/25 04:15:06;;;;;;;6.85;0.95;;;;;;;17.09;47.53;100848.38;4977645;28;20091;-66
2022/11/25 04:17:31;;;;;;;3.35;0.45;;;;;;;17.08;48.13;100857.53;4959687;28;20043;-65
2022/11/25 04:19:56;;;;;;;2.35;0.80;;;;;;;17.06;47.84;100864.94;4977399;28;20033;-65
2022/11/25 04:22:22;;;;;;;2.13;0.68;;;;;;;17.00;48.02;100860.25;4975834;28;20059;-65
2022/11/25 04:24:47;;;;;;;3.95;0.52;;;;;;;17.00;47.93;100860.25;4977109;28;20456;-65
2022/11/25 04:27:12;;;;;;;2.55;0.85;;;;;;;16.98;48.11;100863.09;4976079;28;20384;-64
2022/11/25 04:29:38;;;;;;;1.55;1.20;;;;;;;16.95;47.46;100873.41;4976396;28;20018;-65
2022/11/25 04:32:03;;;;;;;0.90;0.30;;;;;;;16.94;47.08;100887.97;4976334;28;20065;-65
2022/11/25 04:34:29;;;;;;;2.38;0.57;;;;;;;16.92;47.44;100890.00;4991969;28;20030;-65
2022/11/25 04:36:54;;;;;;;1.35;0.52;;;;;;;16.88;48.54;100884.94;4976952;28;20082;-65
2022/11/25 04:39:19;;;;;;;2.53;0.50;;;;;;;16.93;47.84;100886.28;4975941;28;20037;-65
2022/11/25 04:41:45;;;;;;;4.07;0.57;;;;;;;16.94;48.27;100893.38;4977158;28;20061;-65
2022/11/25 04:44:10;;;;;;;5.80;0.80;;;;;;;16.92;48.02;100888.13;4992004;28;20559;-65
2022/11/25 04:46:39;;;;;;;3.05;0.63;;;;;;;16.96;47.63;100892.19;4976909;28;20095;-65
2022/11/25 04:49:05;;;;;;;7.90;0.80;;;;;;;16.94;48.37;100899.66;4976915;28;20038;-65
2022/11/25 04:51:30;;;;;;;1.98;0.80;;;;;;;16.95;47.79;100895.06;4991998;28;20038;-65
2022/11/25 04:53:56;;;;;;;6.53;1.33;;;;;;;16.93;48.27;100902.50;4975227;28;20395;-65
2022/11/25 04:56:22;;;;;;;12.73;1.25;;;;;;;16.94;47.68;100905.06;4975153;28;20117;-65
2022/11/25 05:01:31;;;;;;;3.63;0.73;;;;;;;16.97;48.64;100912.00;4975423;28;20510;-65
2022/11/25 05:03:56;;;;;;;2.03;0.80;;;;;;;16.99;48.40;100913.50;4991290;28;20113;-65
2022/11/25 05:06:22;;;;;;;8.38;1.48;;;;;;;17.00;48.00;100903.53;4959088;28;20389;-65
2022/11/25 05:08:48;;;;;;;5.47;0.82;;;;;;;17.02;47.45;100912.31;4991695;28;20026;-65
2022/11/25 05:11:13;;;;;;;8.50;2.05;;;;;;;16.99;47.89;100902.69;4975083;28;20573;-65
2022/11/25 05:13:39;;;;;;;7.55;0.98;;;;;;;16.97;48.46;100914.69;4991410;28;20050;-65
2022/11/25 05:16:05;;;;;;;10.38;1.23;;;;;;;16.95;47.94;100917.56;4975067;28;20027;-65
2022/11/25 05:18:30;;;;;;;6.13;0.77;;;;;;;16.89;49.22;100919.06;4974943;28;20030;-66
2022/11/25 05:21:00;;;;;;;3.67;1.40;;;;;;;16.87;48.40;100918.41;4977038;28;20042;-66
2022/11/25 05:23:25;;;;;;;5.43;1.13;;;;;;;16.85;48.26;100922.28;4975583;28;20540;-65
2022/11/25 05:25:51;;;;;;;4.18;0.95;;;;;;;16.82;48.82;100928.88;4976537;28;20066;-65
2022/11/25 05:28:16;;;;;;;3.88;1.13;;;;;;;16.81;49.31;100931.75;4976049;28;20089;-65
2022/11/25 05:30:44;;;;;;;4.47;0.90;;;;;;;16.77;47.90;100931.25;4976601;28;20042;-65
2022/11/25 05:33:09;;;;;;;2.85;0.95;;;;;;;16.76;48.73;100934.97;4975872;28;20018;-65
2022/11/25 05:35:34;;;;;;;4.63;1.30;;;;;;;16.76;48.38;100934.97;4959228;28;20571;-65
2022/11/25 05:38:02;;;;;;;7.57;1.02;;;;;;;16.76;48.55;100934.09;4991576;28;20027;-65
2022/11/25 05:40:28;;;;;;;4.13;1.30;;;;;;;16.74;48.83;100928.88;4974944;28;20440;-65
2022/11/25 05:42:53;;;;;;;5.15;0.85;;;;;;;16.74;48.97;100941.56;4991005;28;20027;-65
2022/11/25 05:45:18;;;;;;;6.18;1.70;;;;;;;16.72;48.83;100936.28;4976453;28;20495;-65
2022/11/25 05:47:44;;;;;;;3.83;1.15;;;;;;;16.68;48.41;100947.63;4978475;28;20056;-65
2022/11/25 05:50:09;;;;;;;8.13;1.42;;;;;;;16.65;48.84;100948.81;4994554;28;20034;-65
2022/11/25 05:52:34;;;;;;;4.70;1.27;;;;;;;16.65;47.65;100947.94;4994466;28;20038;-65
2022/11/25 05:55:00;;;;;;;8.68;1.38;;;;;;;16.63;48.10;100956.25;4994109;28;20174;-65
2022/11/25 05:57:25;;;;;;;3.33;0.90;;;;;;;16.62;48.91;100950.97;4995557;28;20042;-65
2022/11/25 05:59:50;;;;;;;7.97;1.40;;;;;;;16.60;48.12;100953.88;4995235;28;20022;-64
2022/11/25 06:02:16;;;;;;;5.53;1.00;;;;;;;16.58;47.68;100953.16;4994405;28;20038;-65
2022/11/25 06:04:41;;;;;;;5.68;1.00;;;;;;;16.58;48.24;100953.16;4994387;28;20084;-65
2022/11/25 06:07:06;;;;;;;7.65;1.58;;;;;;;16.57;48.29;100962.31;4995060;28;20125;-64
2022/11/25 06:09:32;;;;;;;4.82;0.85;;;;;;;16.54;48.28;100959.94;4994117;28;20480;-65
2022/11/25 06:11:57;;;;;;;3.90;1.17;;;;;;;16.54;48.91;100956.38;4994801;28;20034;-65
2022/11/25 06:14:22;;;;;;;1.92;1.08;;;;;;;16.53;48.50;100965.44;4977928;28;20037;-65
2022/11/25 06:16:48;;;;;;;6.15;1.33;;;;;;;16.49;48.42;100954.16;4994406;28;20041;-65
2022/11/25 06:19:13;;;;;;;6.55;1.38;;;;;;;16.47;48.21;100966.97;4993555;28;20468;-65
2022/11/25 06:21:38;;;;;;;8.57;1.13;;;;;;;16.47;49.22;100975.06;4994764;28;20030;-64
2022/11/25 06:24:04;;;;;;;9.88;1.60;;;;;;;16.48;48.38;100975.91;4978524;28;20026;-63
2022/11/25 06:26:29;;;;;;;8.18;1.20;;;;;;;16.47;48.17;100977.78;4994103;28;20161;-63
2022/11/25 06:28:55;;;;;;;8.32;1.25;;;;;;;16.45;48.47;100968.13;4995259;28;20165;-64
2022/11/25 06:31:23;;;;;;;3.67;1.05;;;;;;;16.43;49.52;100965.59;4993614;28;20045;-64
2022/11/25 06:33:50;;;;;;;4.95;1.10;;;;;;;16.42;48.53;100980.13;4963040;28;20114;-65
2022/11/25 06:36:17;;;;;;;1.60;0.80;;;;;;;16.41;49.61;100977.59;4974248;28;20027;-64
2022/11/25 06:38:51;;;;;;;4.20;1.33;;;;;;;16.38;47.91;100977.94;4958256;28;20023;-65
2022/11/25 06:41:17;;;;;;;11.00;1.27;;;;;;;16.38;48.19;100978.78;4990613;28;20035;-65
2022/11/25 06:43:42;;;;;;;4.18;1.45;;;;;;;16.38;48.62;100978.78;4974109;28;20038;-65
2022/11/25 06:46:10;;;;;;;6.60;1.10;;;;;;;16.38;47.87;100995.00;4974162;28;20493;-65
2022/11/25 06:48:36;;;;;;;8.77;1.08;;;;;;;16.36;48.45;100990.75;4974316;28;20089;-65
2022/11/25 06:51:04;;;;;;;7.97;2.22;;;;;;;16.34;49.08;100993.63;4991064;28;20035;-65
2022/11/25 06:53:30;;;;;;;2.63;1.13;;;;;;;16.35;48.51;100995.31;4958349;28;20038;-66
2022/11/25 06:56:16;;;;;;;6.90;0.73;;;;;;;16.34;49.48;100999.03;4990218;28;20053;-65
2022/11/25 06:58:42;;;;;;;7.50;0.82;;;;;;;16.30;49.22;100997.66;4974788;28;20109;-66
2022/11/25 07:01:19;;;;;;;4.03;0.73;;;;;;;16.29;48.18;101012.19;4990103;28;20042;-65
2022/11/25 07:03:45;;;;;;;8.90;1.42;;;;;;;16.27;48.23;101014.22;4974050;28;20393;-65
2022/11/25 07:06:12;;;;;;;10.60;1.00;;;;;;;16.26;49.32;101013.34;4974882;28;20110;-65
2022/11/25 07:08:37;;;;;;;5.90;1.10;;;;;;;16.25;47.95;101025.16;4974407;28;20047;-65
2022/11/25 07:11:11;;;;;;;5.13;0.82;;;;;;;16.22;48.51;101030.88;4990676;28;20114;-66
2022/11/25 07:13:36;;;;;;;8.73;1.52;;;;;;;16.18;48.18;101025.97;4973765;28;20130;-66
2022/11/25 07:16:04;;;;;;;5.20;1.17;;;;;;;16.20;48.32;101032.91;4975853;28;20062;-66
2022/11/25 07:18:34;;;;;;;4.47;1.00;;;;;;;16.20;49.59;101038.31;4980671;28;20026;-65
2022/11/25 07:21:02;;;;;;;5.55;1.10;;;;;;;16.19;48.34;101054.72;4980707;28;20396;-66
2022/11/25 07:23:28;;;;;;;10.30;1.80;;;;;;;16.18;48.94;101069.22;4980524;28;20109;-66
2022/11/25 07:25:53;;;;;;;4.07;0.90;;;;;;;16.19;48.83;101079.03;4996498;28;20049;-66
2022/11/25 07:28:18;;;;;;;3.08;1.30;;;;;;;16.17;49.54;101072.94;4980420;28;20031;-66
2022/11/25 07:30:44;;;;;;;7.85;1.13;;;;;;;16.21;48.31;101083.28;4980149;28;20035;-65
2022/11/25 07:33:09;;;;;;;5.82;1.20;;;;;;;16.23;48.26;101081.25;4997092;28;20053;-66
2022/11/25 07:35:34;;;;;;;2.22;0.70;;;;;;;16.23;49.01;101085.81;4980432;28;20039;-66
2022/11/25 07:38:00;;;;;;;6.95;1.10;;;;;;;16.23;49.53;101091.22;4980304;28;20042;-66
2022/11/25 07:40:25;;;;;;;3.67;1.50;;;;;;;16.22;48.26;101094.91;4981420;28;20467;-66
2022/11/25 07:42:50;;;;;;;7.13;1.27;;;;;;;16.22;48.91;101098.47;4995793;28;20035;-65
2022/11/25 07:45:16;;;;;;;4.25;1.63;;;;;;;16.24;49.60;101101.03;4979928;28;20503;-65
2022/11/25 07:47:41;;;;;;;4.63;1.27;;;;;;;16.25;48.32;101102.69;4982128;28;20023;-66
2022/11/25 07:50:09;;;;;;;8.50;1.48;;;;;;;16.27;49.53;101109.66;4980299;28;20043;-66
2022/11/25 07:52:37;;;;;;;5.78;1.25;;;;;;;16.33;49.02;101111.72;4963647;28;20035;-66
2022/11/25 07:55:02;;;;;;;5.47;1.50;;;;;;;16.36;49.01;101109.72;4963606;28;20023;-66
2022/11/25 07:57:27;;;;;;;4.15;1.20;;;;;;;16.37;49.58;101116.81;4981585;28;20411;-66
2022/11/25 07:59:53;;;;;;;7.25;1.70;;;;;;;16.40;47.76;101128.16;4982170;28;20047;-66
2022/11/25 08:02:18;;;;;;;4.65;1.42;;;;;;;16.42;48.58;101130.69;4980299;28;20038;-66
2022/11/25 08:04:44;;;;;;;5.25;1.30;;;;;;;16.43;48.31;101127.84;4979782;28;20054;-66
2022/11/25 08:07:09;;;;;;;10.32;1.77;;;;;;;16.42;48.15;101128.84;4979774;28;20520;-66
2022/11/25 08:09:35;;;;;;;10.35;1.45;;;;;;;16.45;48.79;101133.94;4979517;28;20023;-66
2022/11/25 08:12:00;;;;;;;3.58;1.83;;;;;;;16.46;48.30;101138.34;4997173;28;20415;-66
2022/11/25 08:14:25;;;;;;;8.50;1.55;;;;;;;16.50;48.84;101142.41;4998904;28;20081;-66
2022/11/25 08:16:51;;;;;;;6.32;1.90;;;;;;;16.49;49.26;101146.16;4998653;28;20030;-65
2022/11/25 08:19:17;;;;;;;5.03;1.08;;;;;;;16.52;47.68;101148.53;4998884;28;20121;-65
2022/11/25 08:21:43;;;;;;;8.85;1.88;;;;;;;16.53;48.51;101160.16;4998913;28;20033;-65
2022/11/25 08:24:13;;;;;;;7.07;1.35;;;;;;;16.56;48.51;101166.16;4982630;28;20483;-65
2022/11/25 08:26:38;;;;;;;6.45;1.77;;;;;;;16.60;48.52;101155.88;4999040;28;20467;-65
2022/11/25 08:29:05;;;;;;;6.72;1.50;;;;;;;16.63;49.06;101150.13;4995629;28;20023;-65
2022/11/25 08:31:33;;;;;;;4.93;1.58;;;;;;;16.65;48.26;101153.53;4979423;28;20117;-64
2022/11/25 08:33:59;;;;;;;1.63;1.17;;;;;;;16.66;47.83;101156.09;4979439;28;20110;-64
2022/11/25 08:36:26;;;;;;;7.93;1.60;;;;;;;16.75;48.01;101165.09;4995850;28;20514;-64
2022/11/25 08:38:54;;;;;;;7.10;1.52;;;;;;;16.79;48.32;101170.00;4996380;28;20072;-65
2022/11/25 08:41:31;;;;;;;3.15;1.30;;;;;;;16.85;48.85;101166.66;4995767;28;20515;-64
2022/11/25 08:43:58;;;;;;;5.00;1.58;;;;;;;16.93;47.73;101167.72;4979679;28;20041;-64
2022/11/25 08:46:26;;;;;;;10.88;1.42;;;;;;;16.96;48.10;101170.09;4979570;28;20031;-64
2022/11/25 08:48:52;;;;;;;8.48;1.50;;;;;;;17.05;48.07;101179.94;4995896;28;20536;-66
2022/11/25 08:51:20;;;;;;;8.35;1.60;;;;;;;17.16;48.59;101179.66;4995084;28;20060;-64
2022/11/25 08:53:46;;;;;;;7.93;1.60;;;;;;;17.18;48.99;101191.16;4979713;28;20033;-64
2022/11/25 08:56:13;;;;;;;3.72;1.40;;;;;;;17.21;48.03;101185.44;4995098;28;20061;-64
2022/11/25 08:58:39;;;;;;;4.70;1.60;;;;;;;17.26;48.37;101192.06;4994985;28;20439;-65
2022/11/25 09:01:05;;;;;;;10.65;1.50;;;;;;;17.31;48.33;101189.69;4995257;28;20107;-65
2022/11/25 09:03:32;;;;;;;3.70;1.25;;;;;;;17.38;48.32;101189.91;4994959;28;20030;-67
2022/11/25 09:05:58;;;;;;;3.47;1.13;;;;;;;17.46;48.39;101192.63;4979739;28;20026;-67
2022/11/25 09:08:23;;;;;;;6.88;1.10;;;;;;;17.54;47.24;101189.97;4995288;28;20150;-64
2022/11/25 09:10:50;;;;;;;5.30;1.30;;;;;;;17.62;47.40;101200.81;4995334;28;20045;-64
2022/11/25 09:13:15;;;;;;;8.02;1.92;;;;;;;17.70;46.98;101205.44;4995264;28;20042;-64
2022/11/25 09:15:40;;;;;;;9.05;1.50;;;;;;;17.74;47.24;101207.63;4995358;28;20518;-66
2022/11/25 09:18:07;;;;;;;8.23;1.55;;;;;;;17.82;47.47;101201.38;4995589;28;20392;-64
2022/11/25 09:20:33;;;;;;;9.60;1.58;;;;;;;17.91;46.94;101216.66;4978898;28;20496;-64
2022/11/25 09:22:59;;;;;;;6.00;1.33;;;;;;;18.10;47.02;101213.63;4995428;28;20033;-65
2022/11/25 09:25:26;;;;;;;7.30;1.55;;;;;;;18.47;47.11;101216.69;4978784;28;20534;-64
2022/11/25 09:27:51;;;;;;;8.10;1.70;;;;;;;18.84;46.71;101216.16;4978475;28;20030;-64
2022/11/25 09:30:17;;;;;;;6.65;1.67;;;;;;;19.18;46.21;101222.13;4978208;28;20041;-65
2022/11/25 09:32:43;;;;;;;13.25;2.25;;;;;;;19.52;45.83;101215.56;4978263;28;20085;-66
2022/11/25 09:35:08;;;;;;;4.88;1.63;;;;;;;19.84;45.47;101220.84;4978604;28;20084;-65
2022/11/25 09:37:34;;;;;;;4.32;1.33;;;;;;;20.19;45.23;101228.41;4994803;28;20037;-66
2022/11/25 09:39:59;;;;;;;6.43;1.42;;;;;;;20.52;45.07;101230.91;4977958;28;20041;-65
2022/11/25 09:48:40;;;;;;;5.20;1.40;;;;;;;21.21;44.06;101238.72;4994266;28;20049;-65
2022/11/25 09:51:19;;;;;;;6.32;1.17;;;;;;;21.43;44.80;101240.47;4994599;28;20077;-66
2022/11/25 09:53:57;;;;;;;8.75;1.58;;;;;;;21.79;44.35;101228.75;4994158;28;20041;-66
2022/11/25 09:56:47;;;;;;;9.32;1.58;;;;;;;22.17;43.23;101243.88;4994065;28;20065;-68
2022/11/25 09:59:21;;;;;;;8.38;1.42;;;;;;;22.40;43.95;101244.53;4994015;28;20034;-66
2022/11/25 10:01:54;;;;;;;10.10;1.63;;;;;;;22.54;43.55;101240.03;4977952;28;20039;-66
2022/11/25 10:04:33;;;;;;;5.80;1.30;;;;;;;22.57;42.94;101245.97;4994124;28;20061;-66
2022/11/25 10:07:02;;;;;;;3.42;1.13;;;;;;;22.81;43.60;101257.53;4994159;28;20022;-66
2022/11/25 10:09:29;;;;;;;4.93;1.45;;;;;;;23.16;43.00;101249.16;4993739;28;20023;-73
2022/11/25 10:11:58;;;;;;;8.30;1.95;;;;;;;23.47;42.38;101248.75;4993666;28;20499;-66
2022/11/25 10:14:45;;;;;;;13.35;1.30;;;;;;;23.59;42.45;101246.28;4993770;28;20046;-66
2022/11/25 10:17:12;;;;;;;11.50;2.03;;;;;;;23.53;41.61;101269.81;4993325;28;20113;-66
2022/11/25 10:19:47;;;;;;;9.80;1.77;;;;;;;23.69;41.53;101265.88;4993693;28;20045;-66
2022/11/25 10:22:25;;;;;;;4.15;1.13;;;;;;;23.40;42.39;101277.91;4994456;28;20042;-66
2022/11/25 10:24:54;;;;;;;12.57;1.83;;;;;;;22.97;42.91;101279.09;4994757;28;20038;-66
2022/11/25 10:27:43;;;;;;;8.70;1.40;;;;;;;23.07;42.21;101274.09;4993305;28;20037;-66
2022/11/25 10:30:14;;;;;;;16.20;2.22;;;;;;;23.41;41.97;101281.50;4993631;28;20399;-66
2022/11/25 10:32:42;;;;;;;4.40;1.20;;;;;;;23.28;42.33;101287.72;4993478;28;20041;-66
2022/11/25 10:35:31;;;;;;;5.63;1.63;;;;;;;23.62;41.30;101287.72;4994830;28;20035;-66
2022/11/25 10:37:59;;;;;;;6.47;1.80;;;;;;;23.89;40.90;101283.22;4993329;28;20432;-66
2022/11/25 10:40:24;;;;;;;7.25;1.58;;;;;;;24.00;41.23;101292.72;4977040;28;20038;-66
2022/11/25 10:42:50;;;;;;;5.72;1.70;;;;;;;24.09;41.03;101283.28;4993132;28;20030;-65
2022/11/25 10:45:15;;;;;;;10.18;1.65;;;;;;;24.32;40.69;101297.47;4993203;28;20052;-65
2022/11/25 10:48:05;;;;;;;9.60;1.60;;;;;;;24.51;40.42;101302.13;4977122;28;20512;-65
2022/11/25 10:51:03;;;;;;;4.30;1.23;;;;;;;24.62;40.14;101301.50;4976431;28;20043;-66
2022/11/25 10:53:29;;;;;;;7.25;1.52;;;;;;;24.81;40.11;101299.91;4964249;28;20038;-66
2022/11/25 10:56:00;;;;;;;4.28;0.90;;;;;;;24.88;39.74;101298.84;4993166;28;20062;-66
2022/11/25 10:58:33;;;;;;;10.43;1.58;;;;;;;24.71;39.50;101308.50;4977246;28;20034;-66
2022/11/25 11:01:24;;;;;;;8.43;1.65;;;;;;;24.77;39.18;101315.88;4994488;28;20034;-66
2022/11/25 11:04:13;;;;;;;4.85;1.10;;;;;;;24.56;40.45;101320.72;4993142;28;20062;-66
2022/11/25 11:06:41;;;;;;;10.30;1.50;;;;;;;24.43;39.80;101327.00;4993195;28;20419;-68
2022/11/25 11:09:42;;;;;;;10.18;1.75;;;;;;;24.67;39.06;101329.16;4994713;28;20049;-66
2022/11/25 11:12:13;;;;;;;6.82;1.50;;;;;;;24.70;39.29;101328.75;4992675;28;20072;-67
2022/11/25 11:14:39;;;;;;;7.40;1.58;;;;;;;24.78;39.00;101334.00;4992950;28;20022;-69
2022/11/25 11:17:04;;;;;;;6.43;1.17;;;;;;;24.86;39.39;101333.00;4994318;28;20121;-66
2022/11/25 11:19:30;;;;;;;5.20;1.15;;;;;;;24.90;38.93;101339.75;4993220;28;20496;-66
2022/11/25 11:21:57;;;;;;;8.05;1.52;;;;;;;24.95;39.14;101337.22;4992982;28;20117;-66
2022/11/25 11:24:36;;;;;;;9.77;2.08;;;;;;;25.06;38.66;101339.31;4992941;28;20038;-66
2022/11/25 11:27:23;;;;;;;8.85;1.33;;;;;;;25.09;38.79;101349.03;4993639;28;20515;-65
2022/11/25 11:30:12;;;;;;;3.83;1.17;;;;;;;24.66;39.15;101349.38;4992902;28;20062;-68
2022/11/25 11:32:41;;;;;;;8.38;1.75;;;;;;;24.53;39.19;101354.84;4992796;28;20039;-65
2022/11/25 11:35:35;;;;;;;6.38;1.27;;;;;;;24.11;39.33;101361.47;4992992;28;20041;-67
2022/11/25 11:38:19;;;;;;;8.38;2.58;;;;;;;23.67;39.84;101369.19;4992647;28;20038;-67
2022/11/25 11:40:51;;;;;;;5.45;1.58;;;;;;;23.32;40.18;101376.50;4976270;28;20043;-67
2022/11/25 11:43:40;;;;;;;6.30;1.58;;;;;;;23.18;40.21;101370.06;4992915;28;20443;-65
2022/11/25 11:46:28;;;;;;;5.60;1.52;;;;;;;23.20;40.37;101372.59;4992059;28;20038;-65